Time;durP1;ratioP1;P1;durP2;ratioP2;P2;SDS_P1;SDS_P2;PMS_P1;PMS_P2;Temp;Humidity;BMP_temperature;BMP_pressure;BME280_temperature;BME280_humidity;BME280_pressure;Samples;Min_cycle;Max_cycle;Signal;HPM_P1;HPM_P2
2023/05/16 07:23:31;;;;;;;8.45;3.33;;;;;;;-145.79;61.40;78466.91;5314895;27;20364;-80
2023/05/16 07:26:02;;;;;;;7.72;2.42;;;;;;;-145.79;60.83;78469.03;5283049;28;20090;-80
2023/05/16 07:28:34;;;;;;;7.75;2.38;;;;;;;-145.79;60.46;78464.78;5283147;28;20028;-80
2023/05/16 07:31:08;;;;;;;10.18;2.10;;;;;;;-145.79;59.68;78456.31;5293322;28;20056;-80
2023/05/16 07:33:39;;;;;;;10.85;3.08;;;;;;;-145.79;59.90;78449.94;5284603;28;20021;-81
2023/05/16 07:36:11;;;;;;;6.43;2.28;;;;;;;-145.79;58.63;78443.59;5285892;28;20434;-80
2023/05/16 07:38:42;;;;;;;7.07;2.65;;;;;;;-145.79;58.24;78428.75;5279234;28;20170;-80
2023/05/16 07:41:13;;;;;;;5.75;1.92;;;;;;;-145.79;57.47;78418.16;5297691;28;20032;-81
2023/05/16 07:43:45;;;;;;;6.18;2.47;;;;;;;-145.79;56.99;78409.66;5295388;28;20060;-83
2023/05/16 07:46:16;;;;;;;6.07;2.15;;;;;;;-145.79;56.65;78399.06;5281712;28;20028;-83
2023/05/16 07:48:48;;;;;;;5.97;1.95;;;;;;;-145.79;56.32;78401.19;5287637;28;20024;-81
2023/05/16 07:51:19;;;;;;;6.85;2.50;;;;;;;-145.79;56.32;78388.47;5286927;28;20052;-82
2023/05/16 07:53:50;;;;;;;8.98;2.85;;;;;;;-145.79;55.60;78363.03;5279688;28;20369;-81
2023/05/16 07:56:22;;;;;;;7.45;2.22;;;;;;;-145.79;53.63;78363.03;5289099;28;20075;-82
2023/05/16 07:58:53;;;;;;;7.65;2.15;;;;;;;-145.79;54.02;78337.59;5288826;28;20123;-82
2023/05/16 08:01:25;;;;;;;6.22;3.05;;;;;;;-145.79;54.92;78346.06;5285614;28;20021;-82
2023/05/16 08:03:56;;;;;;;7.90;2.63;;;;;;;-145.79;56.98;78324.84;5279499;28;20056;-80
2023/05/16 08:06:28;;;;;;;6.43;2.15;;;;;;;-145.79;55.71;78346.06;5293605;28;20048;-78
2023/05/16 08:08:59;;;;;;;7.20;2.58;;;;;;;-145.79;57.00;78352.44;5283570;28;20032;-78
2023/05/16 08:11:31;;;;;;;5.13;1.92;;;;;;;-145.79;58.37;78326.97;5285990;28;20080;-75
2023/05/16 08:14:05;;;;;;;5.32;1.80;;;;;;;-145.79;55.21;78339.69;5283723;28;20028;-75
2023/05/16 08:16:36;;;;;;;12.40;4.75;;;;;;;-145.79;56.40;78331.22;5279046;28;20056;-75
2023/05/16 08:19:08;;;;;;;4.55;1.60;;;;;;;-145.79;55.11;78326.97;5278074;28;20052;-76
2023/05/16 08:21:39;;;;;;;8.52;2.22;;;;;;;-145.79;54.18;78343.94;5295009;28;20089;-76
2023/05/16 08:24:11;;;;;;;6.32;3.17;;;;;;;-145.79;54.16;78335.47;5308999;28;20032;-81
2023/05/16 08:26:42;;;;;;;7.88;2.03;;;;;;;-145.79;54.83;78322.75;5310041;28;20075;-82
2023/05/16 08:29:13;;;;;;;5.13;2.65;;;;;;;-145.79;53.80;78331.22;5308167;28;20104;-81
2023/05/16 08:31:45;;;;;;;6.03;1.77;;;;;;;-145.79;54.65;78337.59;5312424;28;20036;-80
2023/05/16 08:34:16;;;;;;;6.68;2.58;;;;;;;-145.79;54.15;78335.47;5300767;28;20075;-78
2023/05/16 08:36:47;;;;;;;7.70;2.17;;;;;;;-145.79;54.36;78318.50;5297558;28;20051;-79
2023/05/16 08:39:19;;;;;;;4.28;1.80;;;;;;;-145.79;53.48;78303.66;5295968;28;20108;-79
2023/05/16 08:41:50;;;;;;;6.18;1.80;;;;;;;-145.79;52.89;78305.78;5292223;28;20028;-79
2023/05/16 08:44:21;;;;;;;5.20;1.70;;;;;;;-145.79;53.14;78271.84;5301470;28;20052;-79
2023/05/16 08:46:53;;;;;;;5.50;2.28;;;;;;;-145.79;52.81;78271.84;5292275;28;20111;-78
2023/05/16 08:49:26;;;;;;;5.80;2.55;;;;;;;-145.79;51.76;78250.66;5293317;28;20032;-78
2023/05/16 08:52:00;;;;;;;5.50;2.22;;;;;;;-145.79;52.97;78261.25;5297291;28;20407;-83
2023/05/16 08:54:32;;;;;;;5.38;2.58;;;;;;;-145.79;53.44;78267.63;5286827;28;20483;-74
2023/05/16 08:57:06;;;;;;;10.27;4.22;;;;;;;-145.79;54.18;78263.38;5299147;28;20030;-73
2023/05/16 08:59:37;;;;;;;5.25;2.00;;;;;;;-145.79;53.58;78246.41;5293562;28;20028;-72
2023/05/16 09:02:09;;;;;;;8.93;2.40;;;;;;;-145.79;52.62;78246.41;5284545;28;20054;-72
2023/05/16 09:04:42;;;;;;;6.30;2.33;;;;;;;-145.79;54.19;78227.34;5292983;28;20035;-75
2023/05/16 09:07:13;;;;;;;8.73;1.70;;;;;;;-145.79;52.51;78223.09;5299796;28;20498;-76
2023/05/16 09:09:44;;;;;;;10.00;7.32;;;;;;;-145.79;54.33;78199.78;5296027;28;20024;-75
2023/05/16 09:12:16;;;;;;;6.53;2.08;;;;;;;-145.79;55.95;78165.84;5296984;28;20044;-74
2023/05/16 09:14:47;;;;;;;5.35;2.60;;;;;;;-145.79;54.02;78189.19;5288875;28;20027;-74
2023/05/16 09:17:19;;;;;;;5.40;2.00;;;;;;;-145.79;55.77;78184.94;5284254;28;20106;-73
2023/05/16 09:19:55;;;;;;;5.68;2.05;;;;;;;-145.79;53.57;78193.41;5280235;28;20422;-75
2023/05/16 09:22:28;;;;;;;7.15;1.80;;;;;;;-145.79;52.63;78199.78;5293060;28;20059;-75
2023/05/16 09:24:59;;;;;;;25.60;5.53;;;;;;;-145.79;51.96;78170.09;5292529;28;20020;-75
2023/05/16 09:27:31;;;;;;;5.53;2.05;;;;;;;-145.79;57.50;78114.97;5296622;28;20029;-77
2023/05/16 09:30:03;;;;;;;4.78;2.15;;;;;;;-145.79;53.35;78127.69;5290703;28;20024;-76
2023/05/16 09:32:34;;;;;;;4.68;1.52;;;;;;;-145.79;50.72;78136.19;5299796;28;20032;-76
2023/05/16 09:35:13;;;;;;;5.35;1.40;;;;;;;-145.79;49.04;78121.34;5283338;28;20412;-75
2023/05/16 09:37:49;;;;;;;11.80;8.93;;;;;;;-145.79;49.91;78121.34;5297186;28;20357;-76
2023/05/16 09:40:25;;;;;;;13.38;2.63;;;;;;;-145.79;46.97;78123.44;5304206;28;20024;-75
2023/05/16 09:43:06;;;;;;;3.92;2.28;;;;;;;-145.79;47.66;78110.72;5291435;28;20032;-77
2023/05/16 09:45:43;;;;;;;7.57;2.22;;;;;;;-145.79;48.17;78104.38;5290907;28;20046;-76
2023/05/16 09:48:16;;;;;;;12.82;4.47;;;;;;;-145.79;48.99;78093.78;5289596;28;20020;-76
2023/05/16 09:50:53;;;;;;;11.60;2.47;;;;;;;-145.79;48.75;78110.72;5293925;28;20386;-75
2023/05/16 09:53:32;;;;;;;31.45;5.70;;;;;;;-145.79;49.52;78144.66;5284427;28;20534;-75
2023/05/16 09:56:11;;;;;;;12.32;3.00;;;;;;;-145.79;50.17;78159.50;5294560;28;20016;-75
2023/05/16 09:58:44;;;;;;;12.23;2.67;;;;;;;-145.79;50.37;78195.53;5291817;28;20028;-76
2023/05/16 10:01:18;;;;;;;10.85;3.92;;;;;;;-145.79;52.27;78191.28;5292666;28;20107;-74
2023/05/16 10:03:49;;;;;;;9.55;2.55;;;;;;;-145.79;51.63;78189.19;5301721;28;20031;-76
2023/05/16 10:06:21;;;;;;;7.90;2.13;;;;;;;-145.79;50.55;78187.06;5294864;28;20036;-76
2023/05/16 10:08:53;;;;;;;7.05;4.57;;;;;;;-145.79;49.68;78184.94;5295276;28;20375;-75
2023/05/16 10:11:24;;;;;;;21.35;18.20;;;;;;;-145.79;50.00;78142.53;5295420;28;20110;-75
2023/05/16 10:13:55;;;;;;;8.82;3.05;;;;;;;-145.79;47.79;78148.91;5293245;28;20451;-76
2023/05/16 10:16:29;;;;;;;5.70;1.80;;;;;;;-145.79;47.19;78136.19;5297890;28;20029;-76
2023/05/16 10:19:02;;;;;;;15.23;3.03;;;;;;;-145.79;47.00;78114.97;5290930;28;20433;-76
2023/05/16 10:21:37;;;;;;;6.22;1.52;;;;;;;-145.79;45.01;78108.63;5294533;28;20602;-75
2023/05/16 10:24:10;;;;;;;3.00;1.50;;;;;;;-145.79;44.55;78108.63;5286203;28;20407;-75
2023/05/16 10:26:41;;;;;;;5.78;1.70;;;;;;;-145.79;46.39;78076.81;5296336;28;20029;-74
2023/05/16 10:29:13;;;;;;;5.10;2.80;;;;;;;-145.79;45.39;78064.09;5292710;28;20035;-75
2023/05/16 10:31:46;;;;;;;6.28;1.95;;;;;;;-145.79;45.08;78072.56;5292018;28;20056;-75
2023/05/16 10:34:23;;;;;;;2.88;1.90;;;;;;;-145.79;46.35;78076.81;5303523;28;20052;-75
2023/05/16 10:36:55;;;;;;;3.78;1.63;;;;;;;-145.79;46.27;78093.78;5294550;28;20566;-73
2023/05/16 10:39:28;;;;;;;7.18;2.03;;;;;;;-145.79;45.52;78110.72;5293040;28;20028;-72
2023/05/16 10:42:00;;;;;;;2.15;1.30;;;;;;;-145.79;45.21;78093.78;5289047;28;20510;-72
2023/05/16 10:44:35;;;;;;;4.45;1.50;;;;;;;-145.79;44.84;78059.84;5290937;28;20100;-73
2023/05/16 10:47:09;;;;;;;5.13;1.63;;;;;;;-145.79;47.08;78025.94;5291569;28;20085;-73
2023/05/16 10:49:40;;;;;;;5.13;1.67;;;;;;;-145.79;45.28;78019.56;5294974;28;20052;-77
2023/05/16 10:52:14;;;;;;;3.50;1.40;;;;;;;-145.79;43.86;78032.28;5292545;28;20060;-77
2023/05/16 10:54:50;;;;;;;3.53;1.60;;;;;;;-145.79;43.03;78030.19;5290590;28;20028;-77
2023/05/16 10:57:25;;;;;;;5.63;2.22;;;;;;;-145.79;44.23;78034.41;5294690;28;20023;-75
2023/05/16 11:00:00;;;;;;;4.78;1.80;;;;;;;-145.79;44.63;78017.44;5278856;28;20043;-74
2023/05/16 11:02:39;;;;;;;3.73;1.57;;;;;;;-145.79;44.79;78008.97;5288352;28;20118;-75
2023/05/16 11:05:17;;;;;;;28.63;6.68;;;;;;;-145.79;45.14;77964.47;5293304;28;20027;-83
2023/05/16 11:08:03;;;;;;;21.85;3.20;;;;;;;-145.79;44.31;78006.84;5282943;28;20396;-78
2023/05/16 11:10:34;;;;;;;10.50;2.08;;;;;;;-145.79;44.54;78025.94;5283099;28;20099;-76
2023/05/16 11:13:07;;;;;;;137.82;121.75;;;;;;;-145.79;44.57;78034.41;5290777;28;20127;-75
2023/05/16 11:15:38;;;;;;;6.70;2.90;;;;;;;-145.79;44.92;78008.97;5295836;28;20048;-75
2023/05/16 11:18:14;;;;;;;13.10;2.38;;;;;;;-145.79;45.10;77989.91;5285409;28;20053;-75
2023/05/16 11:20:50;;;;;;;4.13;1.67;;;;;;;-145.79;44.94;77962.34;5282430;28;20032;-76
2023/05/16 11:23:23;;;;;;;5.03;1.80;;;;;;;-145.79;43.73;77966.56;5297777;28;20047;-75
2023/05/16 11:25:57;;;;;;;8.48;1.77;;;;;;;-145.79;43.87;77968.69;5297438;28;20034;-75
2023/05/16 11:28:28;;;;;;;7.93;1.77;;;;;;;-145.79;44.62;77966.56;5282926;28;20021;-73
2023/05/16 11:31:03;;;;;;;5.75;1.80;;;;;;;-145.79;43.14;77968.69;5297623;28;20023;-74
2023/05/16 11:33:35;;;;;;;6.00;2.13;;;;;;;-145.79;43.79;77977.19;5290422;28;20038;-73
2023/05/16 11:36:08;;;;;;;5.22;1.83;;;;;;;-145.79;43.92;77951.72;5289542;28;20116;-73
2023/05/16 11:38:42;;;;;;;4.03;1.75;;;;;;;-145.79;44.87;77979.28;5290028;28;20086;-73
2023/05/16 11:41:20;;;;;;;7.07;2.05;;;;;;;-145.79;45.93;78002.63;5297051;28;20395;-72
2023/05/16 11:43:52;;;;;;;20.48;15.77;;;;;;;-145.79;46.35;77972.94;5294349;28;20016;-73
2023/05/16 11:46:23;;;;;;;7.82;2.33;;;;;;;-145.79;45.69;77970.81;5294538;28;20530;-75
2023/05/16 11:48:55;;;;;;;7.88;4.38;;;;;;;-145.79;45.17;77958.09;5289322;28;20115;-74
2023/05/16 11:51:27;;;;;;;4.32;1.83;;;;;;;-145.79;44.72;77953.84;5290542;28;20055;-75
2023/05/16 11:54:01;;;;;;;6.35;1.90;;;;;;;-145.79;43.91;77945.38;5290502;28;20032;-75
2023/05/16 11:56:36;;;;;;;6.18;1.58;;;;;;;-145.79;43.28;77913.56;5283333;28;20121;-74
2023/05/16 11:59:07;;;;;;;6.15;2.10;;;;;;;-145.79;44.32;77909.34;5290640;28;20039;-75
2023/05/16 12:01:39;;;;;;;4.85;1.77;;;;;;;-145.79;44.20;77960.22;5284343;28;20021;-75
2023/05/16 12:04:13;;;;;;;6.05;2.05;;;;;;;-145.79;44.45;77955.97;5289384;28;20039;-74
2023/05/16 12:06:58;;;;;;;4.55;1.60;;;;;;;-145.79;43.31;77922.06;5292899;28;20024;-74
2023/05/16 12:09:29;;;;;;;6.53;2.07;;;;;;;-145.79;42.75;77945.38;5301060;28;20062;-73
2023/05/16 12:12:10;;;;;;;8.80;1.85;;;;;;;-145.79;42.99;77947.50;5291316;28;20032;-74
2023/05/16 12:14:41;;;;;;;4.70;1.50;;;;;;;-145.79;43.21;77983.53;5302390;28;20060;-74
2023/05/16 12:17:13;;;;;;;5.18;2.30;;;;;;;-145.79;43.18;77968.69;5300575;28;20114;-74
2023/05/16 12:19:45;;;;;;;10.82;5.32;;;;;;;-145.79;43.51;77979.28;5297297;28;20073;-74
2023/05/16 12:22:19;;;;;;;5.03;1.90;;;;;;;-145.79;43.82;77970.81;5297226;28;20051;-74
2023/05/16 12:24:51;;;;;;;6.93;1.60;;;;;;;-145.79;43.26;77964.47;5293449;28;20024;-77
2023/05/16 12:27:24;;;;;;;7.00;1.80;;;;;;;-145.79;43.29;77970.81;5293097;28;20031;-77
2023/05/16 12:29:57;;;;;;;4.97;1.83;;;;;;;-145.79;43.51;78000.50;5289166;28;20055;-74
2023/05/16 12:32:28;;;;;;;6.00;2.33;;;;;;;-145.79;43.84;78021.69;5300548;28;20034;-74
2023/05/16 12:35:00;;;;;;;5.78;1.83;;;;;;;-145.79;43.34;78038.66;5292519;28;20021;-77
2023/05/16 12:37:32;;;;;;;3.28;1.88;;;;;;;-145.79;43.88;78038.66;5292670;28;20019;-75
2023/05/16 12:40:05;;;;;;;5.35;2.05;;;;;;;-145.79;43.96;78040.78;5293655;28;20361;-75
2023/05/16 12:42:36;;;;;;;3.75;1.63;;;;;;;-145.79;43.84;78034.41;5294120;28;20028;-75
2023/05/16 12:45:34;;;;;;;3.83;1.77;;;;;;;-145.79;44.52;78025.94;5291456;28;20046;-73
2023/05/16 12:48:11;;;;;;;5.07;2.70;;;;;;;-145.79;44.56;78021.69;5289160;28;20103;-75
2023/05/16 12:50:45;;;;;;;7.30;1.90;;;;;;;-145.79;44.31;78004.72;5288333;28;20044;-75
2023/05/16 12:53:17;;;;;;;11.05;4.97;;;;;;;-145.79;43.81;78013.22;5297682;28;20480;-74
2023/05/16 12:55:49;;;;;;;4.43;2.03;;;;;;;-145.79;43.91;78004.72;5287964;28;20026;-76
2023/05/16 12:58:20;;;;;;;4.40;1.70;;;;;;;-145.79;43.09;78004.72;5297447;28;20050;-75
2023/05/16 13:00:52;;;;;;;4.45;2.00;;;;;;;-145.79;44.27;77998.38;5296594;28;20067;-75
2023/05/16 13:03:29;;;;;;;4.93;1.73;;;;;;;-145.79;43.10;78008.97;5295198;28;20115;-75
2023/05/16 13:06:02;;;;;;;4.35;2.22;;;;;;;-145.79;42.56;78013.22;5287683;28;20471;-75
2023/05/16 13:08:33;;;;;;;5.75;1.92;;;;;;;-145.79;43.64;78006.84;5288188;28;20029;-74
2023/05/16 13:11:06;;;;;;;3.92;1.70;;;;;;;-145.79;42.40;78025.94;5292607;28;20031;-75
2023/05/16 13:13:38;;;;;;;3.63;1.70;;;;;;;-145.79;43.13;78013.22;5284547;28;20513;-76
2023/05/16 13:16:09;;;;;;;4.00;1.63;;;;;;;-145.79;43.89;78017.44;5292823;28;20024;-75
2023/05/16 13:18:40;;;;;;;3.47;1.30;;;;;;;-145.79;43.84;78042.91;5288721;28;20055;-74
2023/05/16 13:21:12;;;;;;;19.15;11.85;;;;;;;-145.79;44.83;78030.19;5295949;28;20041;-74
2023/05/16 13:23:44;;;;;;;3.35;1.80;;;;;;;-145.79;43.99;78057.72;5294024;28;20533;-75
2023/05/16 13:26:17;;;;;;;6.53;2.55;;;;;;;-145.79;44.67;78051.38;5297550;28;20031;-75
2023/05/16 13:28:51;;;;;;;4.35;1.88;;;;;;;-145.79;46.11;78053.50;5286257;28;20052;-74
2023/05/16 13:31:23;;;;;;;4.43;1.70;;;;;;;-145.79;44.88;78059.84;5296711;28;20031;-75
2023/05/16 13:33:54;;;;;;;7.00;2.33;;;;;;;-145.79;44.81;78059.84;5286064;28;20025;-74
2023/05/16 13:36:25;;;;;;;3.00;1.63;;;;;;;-145.79;44.65;78066.22;5291793;28;20028;-74
2023/05/16 13:38:57;;;;;;;5.03;2.38;;;;;;;-145.79;45.60;78051.38;5300213;28;20390;-74
2023/05/16 13:41:28;;;;;;;4.00;1.80;;;;;;;-145.79;44.92;78055.63;5290306;28;20024;-74
2023/05/16 13:44:01;;;;;;;5.70;2.28;;;;;;;-145.79;44.54;78066.22;5300715;28;20040;-76
2023/05/16 13:46:32;;;;;;;6.00;1.80;;;;;;;-145.79;44.67;78070.44;5289995;28;20024;-74
2023/05/16 13:49:03;;;;;;;4.22;1.70;;;;;;;-145.79;44.99;78083.19;5294563;28;20486;-77
2023/05/16 13:51:35;;;;;;;4.95;1.83;;;;;;;-145.79;45.09;78068.34;5286835;28;20033;-73
2023/05/16 13:54:06;;;;;;;7.05;1.77;;;;;;;-145.79;45.67;78059.84;5296098;28;20059;-75
2023/05/16 13:56:37;;;;;;;4.38;1.88;;;;;;;-145.79;45.34;78064.09;5305333;28;20027;-74
2023/05/16 13:59:09;;;;;;;5.75;1.60;;;;;;;-145.79;45.17;78064.09;5297898;28;20123;-75
2023/05/16 14:01:40;;;;;;;5.13;1.98;;;;;;;-145.79;45.24;78055.63;5304829;28;20031;-74
2023/05/16 14:04:11;;;;;;;5.95;1.70;;;;;;;-145.79;45.55;78051.38;5287267;28;20078;-74
2023/05/16 14:06:43;;;;;;;6.93;2.15;;;;;;;-145.79;45.27;78064.09;5304895;28;20144;-73
2023/05/16 14:09:15;;;;;;;5.63;1.55;;;;;;;-145.79;45.62;78049.25;5301560;28;20119;-76
2023/05/16 14:11:47;;;;;;;3.88;1.92;;;;;;;-145.79;45.70;78055.63;5306340;28;20016;-74
2023/05/16 14:14:18;;;;;;;4.90;1.70;;;;;;;-145.79;47.47;78051.38;5300403;28;21950;-75
2023/05/16 14:16:49;;;;;;;4.88;1.63;;;;;;;-145.79;47.88;78055.63;5298605;28;20065;-75
2023/05/16 14:19:23;;;;;;;3.22;1.52;;;;;;;-145.79;46.01;78074.69;5288256;28;20069;-73
2023/05/16 14:21:55;;;;;;;4.22;1.60;;;;;;;-145.79;45.46;78072.56;5303632;28;20343;-74
2023/05/16 14:24:26;;;;;;;2.65;1.40;;;;;;;-145.79;46.18;78072.56;5292139;28;20032;-74
2023/05/16 14:26:57;;;;;;;2.70;1.92;;;;;;;-145.79;46.48;78057.72;5301312;28;20024;-75
2023/05/16 14:29:31;;;;;;;4.28;1.50;;;;;;;-145.79;46.54;78055.63;5293568;28;20020;-75
2023/05/16 14:32:03;;;;;;;4.95;1.60;;;;;;;-145.79;45.13;78059.84;5289677;28;20089;-76
2023/05/16 14:34:34;;;;;;;7.05;2.22;;;;;;;-145.79;45.51;78055.63;5290988;28;20036;-76
2023/05/16 14:37:06;;;;;;;4.40;1.50;;;;;;;-145.79;44.47;78059.84;5286308;28;20020;-73
2023/05/16 14:39:37;;;;;;;3.22;1.45;;;;;;;-145.79;44.06;78072.56;5303287;28;20028;-77
2023/05/16 14:42:09;;;;;;;5.15;2.03;;;;;;;-145.79;44.65;78055.63;5286666;28;20020;-75
2023/05/16 14:44:41;;;;;;;4.63;1.50;;;;;;;-145.79;43.99;78061.97;5288939;28;20024;-74
2023/05/16 14:47:12;;;;;;;5.22;1.52;;;;;;;-145.79;43.99;78072.56;5296133;28;20101;-72
2023/05/16 14:49:44;;;;;;;4.75;1.55;;;;;;;-145.79;44.83;78072.56;5291764;28;20077;-74
2023/05/16 14:52:15;;;;;;;3.90;1.65;;;;;;;-145.79;44.70;78074.69;5291418;28;20025;-76
2023/05/16 14:54:46;;;;;;;3.80;1.65;;;;;;;-145.79;44.23;78089.53;5290529;28;20129;-75
2023/05/16 14:57:18;;;;;;;10.02;7.70;;;;;;;-145.79;44.96;78083.19;5292013;28;20020;-75
2023/05/16 14:59:49;;;;;;;7.72;1.85;;;;;;;-145.79;45.58;78076.81;5297017;28;20024;-76
2023/05/16 15:02:25;;;;;;;2.92;1.27;;;;;;;-145.79;44.42;78087.41;5293566;28;20039;-75
2023/05/16 15:04:56;;;;;;;5.82;2.10;;;;;;;-145.79;44.67;78076.81;5301171;28;20024;-74
2023/05/16 15:07:28;;;;;;;5.80;2.10;;;;;;;-145.79;44.48;78076.81;5286310;28;20039;-73
2023/05/16 15:09:59;;;;;;;6.03;1.70;;;;;;;-145.79;44.54;78070.44;5301906;28;20028;-73
2023/05/16 15:12:31;;;;;;;2.95;1.75;;;;;;;-145.79;45.02;78072.56;5299059;28;20039;-74
2023/05/16 15:15:03;;;;;;;8.60;5.15;;;;;;;-145.79;45.10;78066.22;5288573;28;20380;-73
2023/05/16 15:17:40;;;;;;;3.63;1.88;;;;;;;-145.79;44.67;78059.84;5287996;28;20028;-73
2023/05/16 15:20:11;;;;;;;3.25;1.63;;;;;;;-145.79;44.90;78051.38;5289824;28;20032;-72
2023/05/16 15:22:43;;;;;;;3.45;1.42;;;;;;;-145.79;44.36;78042.91;5290594;28;20044;-73
2023/05/16 15:25:14;;;;;;;5.90;1.73;;;;;;;-145.79;43.87;78032.28;5290717;28;20076;-73
2023/05/16 15:27:45;;;;;;;6.00;3.70;;;;;;;-145.79;44.69;78021.69;5290397;28;20029;-72
2023/05/16 15:30:17;;;;;;;4.25;2.03;;;;;;;-145.79;43.01;78021.69;5290227;28;20032;-75
2023/05/16 15:32:50;;;;;;;5.13;1.90;;;;;;;-145.79;42.04;78013.22;5283893;28;20361;-74
2023/05/16 15:35:25;;;;;;;4.28;1.50;;;;;;;-145.79;42.76;78004.72;5290254;28;20375;-76
2023/05/16 15:37:58;;;;;;;3.25;1.35;;;;;;;-145.79;42.37;77985.66;5290093;28;20078;-75
2023/05/16 15:40:29;;;;;;;3.97;1.60;;;;;;;-145.79;42.54;77992.00;5284123;28;20046;-74
2023/05/16 15:43:03;;;;;;;6.40;1.70;;;;;;;-145.79;42.08;77985.66;5290843;28;20028;-73
2023/05/16 15:45:36;;;;;;;4.40;1.60;;;;;;;-145.79;42.59;77998.38;5302060;28;20413;-73
2023/05/16 15:48:11;;;;;;;4.38;1.55;;;;;;;-145.79;42.29;78017.44;5289750;28;20028;-74
2023/05/16 15:50:43;;;;;;;3.22;1.23;;;;;;;-145.79;42.23;78015.34;5290812;28;20035;-79
2023/05/16 15:53:14;;;;;;;2.60;1.70;;;;;;;-145.79;42.72;78006.84;5301997;28;20020;-78
2023/05/16 15:55:48;;;;;;;4.80;2.53;;;;;;;-145.79;41.70;78015.34;5290770;28;20024;-75
2023/05/16 15:58:19;;;;;;;4.00;1.40;;;;;;;-145.79;41.09;78013.22;5298850;28;20027;-72
2023/05/16 16:00:51;;;;;;;2.28;1.35;;;;;;;-145.79;41.31;78025.94;5289785;28;20020;-72
2023/05/16 16:03:22;;;;;;;4.03;1.55;;;;;;;-145.79;41.37;78028.06;5305020;28;20031;-78
2023/05/16 16:05:53;;;;;;;4.53;1.20;;;;;;;-145.79;41.72;78038.66;5301835;28;20033;-77
2023/05/16 16:08:27;;;;;;;3.35;1.25;;;;;;;-145.79;42.56;78040.78;5289679;28;20102;-79
2023/05/16 16:10:58;;;;;;;5.13;1.35;;;;;;;-145.79;42.59;78047.13;5301522;28;20390;-76
2023/05/16 16:13:30;;;;;;;3.00;1.30;;;;;;;-145.79;43.09;78049.25;5288480;28;20040;-74
2023/05/16 16:16:02;;;;;;;4.18;1.20;;;;;;;-145.79;42.76;78059.84;5300780;28;20032;-73
2023/05/16 16:18:33;;;;;;;3.45;1.50;;;;;;;-145.79;43.02;78059.84;5294603;28;20031;-73
2023/05/16 16:21:07;;;;;;;4.78;1.63;;;;;;;-145.79;43.14;78064.09;5300554;28;20020;-72
2023/05/16 16:23:39;;;;;;;3.58;1.98;;;;;;;-145.79;43.33;78068.34;5285824;28;20028;-70
2023/05/16 16:26:11;;;;;;;5.63;2.10;;;;;;;-145.79;43.88;78059.84;5302436;28;20548;-73
2023/05/16 16:28:42;;;;;;;5.75;1.50;;;;;;;-145.79;43.09;78025.94;5286155;28;20028;-73
2023/05/16 16:31:13;;;;;;;2.75;1.25;;;;;;;-145.79;42.88;78019.56;5301986;28;20087;-73
2023/05/16 16:33:47;;;;;;;20.65;16.63;;;;;;;-145.79;42.41;78030.19;5304630;28;20034;-73
2023/05/16 16:36:20;;;;;;;3.72;1.42;;;;;;;-145.79;42.28;78051.38;5296401;28;20036;-73
2023/05/16 16:38:54;;;;;;;4.35;1.58;;;;;;;-145.79;42.69;78066.22;5293993;28;20063;-75
2023/05/16 16:41:25;;;;;;;7.28;1.40;;;;;;;-145.79;43.13;78059.84;5296022;28;20055;-73
2023/05/16 16:43:59;;;;;;;2.53;1.38;;;;;;;-145.79;43.51;78064.09;5291277;28;20251;-74
2023/05/16 16:46:30;;;;;;;1.95;1.10;;;;;;;-145.79;43.77;78057.72;5303612;28;20026;-73
2023/05/16 16:49:01;;;;;;;5.78;1.80;;;;;;;-145.79;44.15;78059.84;5297662;28;20416;-74
2023/05/16 16:51:33;;;;;;;4.57;1.23;;;;;;;-145.79;44.16;78051.38;5297322;28;20037;-73
2023/05/16 16:54:31;;;;;;;3.05;1.88;;;;;;;-145.79;44.48;78061.97;5302436;28;20020;-77
